This is the latest recevied weather packets stored in our database for station/object LEBL. If no packets are shown the sender has not sent any weather packets the latest 10 day(s).
| Time | Temp. | Humidity | Pressure | Rain* | Wind** | Luminosity | Snow |
|---|---|---|---|---|---|---|---|
| 1778069704 | 18.89° C | 45% | 1012 hPa | - | - | - | - |
| 1778067904 | 18.89° C | 42% | 1012 hPa | - | - | - | - |
| 1778067005 | 17.78° C | 45% | 1012 hPa | - | - | - | - |
| 1778066103 | 17.78° C | 45% | 1012 hPa | - | - | - | - |
| 1778065205 | 17.78° C | 45% | 1013 hPa | - | - | - | - |
| 1778064304 | 17.78° C | 45% | 1013 hPa | - | - | - | - |
| 1778063405 | 18.89° C | 45% | 1013 hPa | - | - | - | - |
| 1778062504 | 18.89° C | 45% | 1013 hPa | - | - | - | - |
| 1778061605 | 17.78° C | 48% | 1013 hPa | - | - | - | - |
| 1778059804 | 17.22° C | 55% | 1013 hPa | - | - | - | - |
| 1778058905 | 17.22° C | 55% | 1013 hPa | - | - | - | - |
| 1778058005 | 16.11° C | 55% | 1013 hPa | - | - | - | - |
| 1778056205 | 16.11° C | 55% | 1013 hPa | - | - | - | - |
| 1778055304 | 16.11° C | 55% | 1013 hPa | - | - | - | - |
| 1778053504 | 12.78° C | 71% | 1012 hPa | - | - | - | - |
| 1778050805 | 12.78° C | 71% | 1012 hPa | - | - | - | - |
| 1778049005 | 12.22° C | 81% | 1012 hPa | - | - | - | - |
| 1778048104 | 12.22° C | 81% | 1012 hPa | - | - | - | - |
| 1778045405 | 12.22° C | 81% | 1011 hPa | - | - | - | - |
| 1778044504 | 12.22° C | 81% | 1011 hPa | - | - | - | - |
| 1778041804 | 12.22° C | 87% | 1011 hPa | - | - | - | - |
| 1778039103 | 12.22° C | 87% | 1011 hPa | - | - | - | - |
| 1778038204 | 12.78° C | 82% | 1011 hPa | - | - | - | - |
| 1778037304 | 12.78° C | 82% | 1011 hPa | - | - | - | - |
| 1778034605 | 12.78° C | 87% | 1011 hPa | - | - | - | - |
* Rain since midnight (hover to see other rain measurements)
** Current wind speed in m/s (hover to see current wind gust speed)